Weather at Charleston International Airport

Public forecast

Using degrees Fahrenheit for public forecast. Weather courtesy of forecast.io.

Current aviation weather report (METAR) for Charleston International Airport

Retrieved 2021/10/24 07:56 UTC (51 minutes ago):

KCHS 240756Z 00000KT 10SM CLR 14/13 A3007 RMK AO2 SLP181 T01390128

Aviation forecast (TAF) for Charleston International Airport

Retrieved 2021/10/24 06:30 UTC (2 hours ago):

TAF KCHS 240522Z 2406/2506 00000KT P6SM FEW250 FM241400 09005KT P6SM SCT250 FM241800 15008KT P6SM SCT250 FM250200 11004KT P6SM FEW040 BKN200